No particular awareness of the weather is required.    There are no Weather-warnings


Meteo18 Weather Cam more information Meteo18 Weather Cam


Thunder radar more information blitzortung!


Rain radar more information rain snow radar


Visit our other weather sites:

Template documentation
and downloads

And another site



Weather Underground History page Text

Daily Summary for April 7, 2017 Units:  English    Metric   Both
« Previous Day
Next Day »
Daily Weekly Monthly Yearly Custom
  High: Low: Average:
Temperature: TemperatureC °F 3.6 °F 10.4 °F
Dew Point: DewpointC °F 1.8 °F 4.8 °F
Humidity: Humidity % 47 % 70 %
Wind Speed: WindSpeedKMH mph 0.0 mph 6.1 mph
Wind Gust: WindSpeedGustKMH mph - -
Wind:- - ESE
Pressure: PressurehPa in 1023.9 in -
Precipitation: 0.0 in    
Historical Graphs
 
 
Tabular Data for April 7, 2017
Time Temperature Dew Point Pressure Wind Wind Speed Wind Gust Humidity Rainfall Rate (Hourly)
TemperatureC °F DewpointC °F PressurehPa in Calm     Humidity % HourlyPrecipMM in
00:02 5.9 °F 2.9 °F 1028.0 in NNW 1.6 mph 6.4 mph 81 % 0.0 in
00:07 5.9 °F 2.9 °F 1028.0 in NNE 3.2 mph 4.8 mph 81 % 0.0 in
00:12 5.8 °F 2.8 °F 1028.0 in NNE 3.2 mph 4.8 mph 81 % 0.0 in
00:17 5.8 °F 3.0 °F 1028.0 in NNW 3.2 mph 6.4 mph 82 % 0.0 in
00:22 5.7 °F 2.7 °F 1027.7 in NW 1.6 mph 6.4 mph 81 % 0.0 in
00:27 5.7 °F 2.9 °F 1027.7 in Calm   6.4 mph 82 % 0.0 in
00:32 5.6 °F 2.8 °F 1027.7 in Calm   4.8 mph 82 % 0.0 in
00:37 5.6 °F 2.8 °F 1027.7 in NNW 3.2 mph 4.8 mph 82 % 0.0 in
00:47 5.5 °F 2.8 °F 1027.7 in NNW 1.6 mph 4.8 mph 83 % 0.0 in
00:52 5.6 °F 2.8 °F 1027.7 in NW 3.2 mph 4.8 mph 82 % 0.0 in
00:57 5.6 °F 2.9 °F 1027.7 in NW 1.6 mph 4.8 mph 83 % 0.0 in
01:02 5.6 °F 2.8 °F 1027.7 in NW 1.6 mph 4.8 mph 82 % 0.0 in
01:07 5.6 °F 2.8 °F 1027.7 in NW 1.6 mph 4.8 mph 82 % 0.0 in
01:12 5.6 °F 2.8 °F 1027.7 in NW 3.2 mph 4.8 mph 82 % 0.0 in
01:17 5.6 °F 2.8 °F 1027.7 in NNW 1.6 mph 8.0 mph 82 % 0.0 in
01:22 5.6 °F 2.9 °F 1027.7 in NW 3.2 mph 8.0 mph 83 % 0.0 in
01:27 5.6 °F 2.9 °F 1027.7 in NNW 1.6 mph 8.0 mph 83 % 0.0 in
01:32 5.5 °F 2.8 °F 1027.7 in NW 4.8 mph 8.0 mph 83 % 0.0 in
01:37 5.4 °F 2.7 °F 1027.7 in WNW 3.2 mph 8.0 mph 83 % 0.0 in
01:42 5.3 °F 2.6 °F 1027.7 in NNW 3.2 mph 6.4 mph 83 % 0.0 in
01:47 5.3 °F 2.6 °F 1027.7 in NNW 1.6 mph 6.4 mph 83 % 0.0 in
01:52 5.3 °F 2.8 °F 1027.7 in NNW 3.2 mph 6.4 mph 84 % 0.0 in
01:57 5.2 °F 2.7 °F 1027.7 in North 1.6 mph 6.4 mph 84 % 0.0 in
02:02 5.2 °F 2.7 °F 1027.3 in NW 4.8 mph 8.0 mph 84 % 0.0 in
02:07 5.2 °F 2.7 °F 1027.3 in NW 3.2 mph 8.0 mph 84 % 0.0 in
02:12 5.1 °F 2.6 °F 1027.3 in NW 1.6 mph 8.0 mph 84 % 0.0 in
02:17 5.1 °F 2.6 °F 1027.3 in NW 4.8 mph 8.0 mph 84 % 0.0 in
02:22 5.1 °F 2.8 °F 1027.3 in NNW 1.6 mph 8.0 mph 85 % 0.0 in
02:27 5.1 °F 2.8 °F 1027.0 in NW 1.6 mph 6.4 mph 85 % 0.0 in
02:32 5.1 °F 2.8 °F 1027.3 in NNW 4.8 mph 6.4 mph 85 % 0.0 in
02:37 5.0 °F 2.7 °F 1027.0 in NNW 1.6 mph 6.4 mph 85 % 0.0 in
02:42 4.9 °F 2.6 °F 1027.0 in North 3.2 mph 9.7 mph 85 % 0.0 in
02:47 4.9 °F 2.6 °F 1027.0 in NE 3.2 mph 9.7 mph 85 % 0.0 in
02:52 4.9 °F 2.6 °F 1027.0 in NNW 3.2 mph 9.7 mph 85 % 0.0 in
02:57 4.9 °F 2.6 °F 1027.0 in NW 3.2 mph 9.7 mph 85 % 0.0 in
03:02 4.9 °F 2.6 °F 1027.0 in NNE 4.8 mph 8.0 mph 85 % 0.0 in
03:07 4.9 °F 2.6 °F 1027.0 in North 3.2 mph 11.3 mph 85 % 0.0 in
03:12 4.9 °F 2.6 °F 1026.6 in NNW 3.2 mph 11.3 mph 85 % 0.0 in
03:17 4.9 °F 2.6 °F 1026.6 in NNW 3.2 mph 11.3 mph 85 % 0.0 in
03:22 4.8 °F 2.5 °F 1026.6 in NNE 4.8 mph 9.7 mph 85 % 0.0 in
03:27 4.8 °F 2.5 °F 1026.6 in North 1.6 mph 9.7 mph 85 % 0.0 in
03:32 4.7 °F 2.6 °F 1026.6 in NNW 3.2 mph 6.4 mph 86 % 0.0 in
03:37 4.7 °F 2.6 °F 1026.6 in NNW 3.2 mph 6.4 mph 86 % 0.0 in
03:42 4.7 °F 2.6 °F 1026.6 in North 1.6 mph 4.8 mph 86 % 0.0 in
03:47 4.7 °F 2.6 °F 1026.6 in North 1.6 mph 4.8 mph 86 % 0.0 in
03:52 4.6 °F 2.5 °F 1026.6 in North 3.2 mph 4.8 mph 86 % 0.0 in
03:57 4.6 °F 2.5 °F 1026.6 in North 3.2 mph 4.8 mph 86 % 0.0 in
04:02 4.7 °F 2.6 °F 1026.6 in Calm   9.7 mph 86 % 0.0 in
04:07 4.7 °F 2.6 °F 1026.6 in NW 3.2 mph 9.7 mph 86 % 0.0 in
04:12 4.6 °F 2.5 °F 1026.6 in North 3.2 mph 9.7 mph 86 % 0.0 in
04:17 4.6 °F 2.5 °F 1026.6 in NNW 4.8 mph 6.4 mph 86 % 0.0 in
04:22 4.6 °F 2.5 °F 1026.6 in North 3.2 mph 8.0 mph 86 % 0.0 in
04:27 4.6 °F 2.5 °F 1026.6 in North 6.4 mph 8.0 mph 86 % 0.0 in
04:32 4.4 °F 2.3 °F 1026.3 in North 4.8 mph 8.0 mph 86 % 0.0 in
04:37 4.4 °F 2.3 °F 1026.3 in North 4.8 mph 9.7 mph 86 % 0.0 in
04:42 4.3 °F 2.3 °F 1026.3 in North 3.2 mph 9.7 mph 87 % 0.0 in
04:52 4.2 °F 2.2 °F 1026.3 in NNW 3.2 mph 9.7 mph 87 % 0.0 in
04:57 4.2 °F 2.2 °F 1026.3 in North 4.8 mph 8.0 mph 87 % 0.0 in
05:02 4.2 °F 2.2 °F 1026.3 in North 3.2 mph 8.0 mph 87 % 0.0 in
05:12 4.2 °F 2.2 °F 1026.3 in NNW 3.2 mph 9.7 mph 87 % 0.0 in
05:17 4.2 °F 2.2 °F 1026.3 in NNE 4.8 mph 9.7 mph 87 % 0.0 in
05:22 4.2 °F 2.2 °F 1026.3 in Calm   9.7 mph 87 % 0.0 in
05:27 4.2 °F 2.2 °F 1026.3 in NNE 3.2 mph 6.4 mph 87 % 0.0 in
05:32 4.3 °F 2.3 °F 1026.3 in NW 6.4 mph 8.0 mph 87 % 0.0 in
05:37 4.3 °F 2.3 °F 1026.3 in NNE 6.4 mph 8.0 mph 87 % 0.0 in
05:42 4.3 °F 2.2 °F 1026.3 in NNE 3.2 mph 11.3 mph 86 % 0.0 in
05:47 4.2 °F 2.2 °F 1026.3 in North 3.2 mph 11.3 mph 87 % 0.0 in
05:52 4.1 °F 2.1 °F 1026.3 in North 3.2 mph 11.3 mph 87 % 0.0 in
05:57 3.9 °F 1.9 °F 1026.3 in NNE 4.8 mph 11.3 mph 87 % 0.0 in
06:02 3.9 °F 1.9 °F 1026.3 in North 6.4 mph 11.3 mph 87 % 0.0 in
06:07 3.8 °F 1.8 °F 1026.0 in North 3.2 mph 11.3 mph 87 % 0.0 in
06:12 3.8 °F 1.8 °F 1026.3 in NE 4.8 mph 8.0 mph 87 % 0.0 in
06:17 3.7 °F 1.9 °F 1026.3 in North 8.0 mph 8.0 mph 88 % 0.0 in
06:22 3.8 °F 2.0 °F 1026.3 in North 6.4 mph 8.0 mph 88 % 0.0 in
06:27 3.9 °F 2.1 °F 1026.3 in North 1.6 mph 8.0 mph 88 % 0.0 in
06:32 3.9 °F 2.1 °F 1026.0 in NNE 3.2 mph 11.3 mph 88 % 0.0 in
06:37 3.8 °F 2.0 °F 1026.0 in North 4.8 mph 11.3 mph 88 % 0.0 in
06:42 3.8 °F 2.0 °F 1026.0 in Calm   11.3 mph 88 % 0.0 in
06:47 3.7 °F 1.9 °F 1026.0 in NNW 6.4 mph 11.3 mph 88 % 0.0 in
06:57 3.6 °F 1.8 °F 1026.0 in NNE 3.2 mph 9.7 mph 88 % 0.0 in
07:02 3.6 °F 2.0 °F 1026.0 in NW 3.2 mph 8.0 mph 89 % 0.0 in
07:12 3.6 °F 2.0 °F 1025.6 in Calm   9.7 mph 89 % 0.0 in
07:17 3.6 °F 2.0 °F 1026.0 in NNE 4.8 mph 9.7 mph 89 % 0.0 in
07:22 3.6 °F 2.0 °F 1026.0 in NNW 9.7 mph 9.7 mph 89 % 0.0 in
07:32 3.8 °F 2.0 °F 1026.0 in NNE 4.8 mph 12.9 mph 88 % 0.0 in
07:37 3.8 °F 2.0 °F 1026.0 in North 3.2 mph 12.9 mph 88 % 0.0 in
07:42 3.8 °F 2.0 °F 1026.0 in NNE 4.8 mph 8.0 mph 88 % 0.0 in
07:47 3.9 °F 2.1 °F 1026.0 in North 3.2 mph 8.0 mph 88 % 0.0 in
07:57 4.2 °F 2.4 °F 1026.0 in NNE 3.2 mph 8.0 mph 88 % 0.0 in
08:02 4.3 °F 2.3 °F 1026.0 in NE 3.2 mph 8.0 mph 87 % 0.0 in
08:07 4.4 °F 2.4 °F 1026.0 in NNE 1.6 mph 12.9 mph 87 % 0.0 in
08:12 4.6 °F 2.6 °F 1026.0 in NNW 3.2 mph 12.9 mph 87 % 0.0 in
08:17 4.6 °F 2.6 °F 1026.0 in NNE 6.4 mph 12.9 mph 87 % 0.0 in
08:22 4.8 °F 2.8 °F 1026.0 in NE 3.2 mph 11.3 mph 87 % 0.0 in
08:32 5.0 °F 2.9 °F 1026.3 in NNW 4.8 mph 11.3 mph 86 % 0.0 in
08:37 5.2 °F 3.1 °F 1026.0 in NE 4.8 mph 11.3 mph 86 % 0.0 in
08:42 5.3 °F 3.0 °F 1026.3 in NW 3.2 mph 9.7 mph 85 % 0.0 in
08:47 5.4 °F 2.9 °F 1026.3 in NE 9.7 mph 12.9 mph 84 % 0.0 in
08:52 5.6 °F 2.9 °F 1026.3 in NNE 4.8 mph 12.9 mph 83 % 0.0 in
08:57 5.8 °F 3.1 °F 1026.3 in ENE 1.6 mph 12.9 mph 83 % 0.0 in
09:02 5.9 °F 3.1 °F 1026.6 in NNE 8.0 mph 12.9 mph 82 % 0.0 in
09:12 6.3 °F 3.5 °F 1026.6 in NE 3.2 mph 16.1 mph 82 % 0.0 in
09:17 6.4 °F 3.4 °F 1026.6 in ENE 6.4 mph 16.1 mph 81 % 0.0 in
09:22 6.5 °F 3.3 °F 1026.6 in NNE 11.3 mph 14.5 mph 80 % 0.0 in
09:27 6.7 °F 3.3 °F 1026.6 in NNE 12.9 mph 16.1 mph 79 % 0.0 in
09:32 6.8 °F 3.6 °F 1026.6 in NE 6.4 mph 16.1 mph 80 % 0.0 in
09:37 6.9 °F 3.5 °F 1026.6 in NNE 9.7 mph 16.1 mph 79 % 0.0 in
09:42 7.0 °F 3.6 °F 1026.6 in NE 8.0 mph 14.5 mph 79 % 0.0 in
09:47 7.2 °F 3.6 °F 1026.6 in NNE 9.7 mph 14.5 mph 78 % 0.0 in
09:52 7.3 °F 3.7 °F 1026.6 in ENE 1.6 mph 12.9 mph 78 % 0.0 in
09:57 7.5 °F 3.7 °F 1027.0 in NE 8.0 mph 12.9 mph 77 % 0.0 in
10:02 7.7 °F 3.9 °F 1027.0 in NE 11.3 mph 16.1 mph 77 % 0.0 in
10:12 8.1 °F 3.9 °F 1026.6 in NNE 11.3 mph 16.1 mph 75 % 0.0 in
10:17 8.1 °F 3.9 °F 1026.6 in NNE 6.4 mph 17.7 mph 75 % 0.0 in
10:22 8.4 °F 4.0 °F 1026.6 in NE 11.3 mph 20.9 mph 74 % 0.0 in
10:32 8.8 °F 4.0 °F 1026.6 in NE 4.8 mph 20.9 mph 72 % 0.0 in
10:42 9.4 °F 4.4 °F 1026.6 in East 1.6 mph 17.7 mph 71 % 0.0 in
10:47 9.5 °F 4.5 °F 1026.6 in ENE 6.4 mph 16.1 mph 71 % 0.0 in
10:52 9.4 °F 4.0 °F 1026.6 in NE 8.0 mph 14.5 mph 69 % 0.0 in
10:57 9.6 °F 4.4 °F 1026.6 in North 9.7 mph 17.7 mph 70 % 0.0 in
11:02 9.8 °F 4.2 °F 1027.0 in NE 14.5 mph 17.7 mph 68 % 0.0 in
11:07 10.1 °F 4.7 °F 1027.0 in NE 6.4 mph 17.7 mph 69 % 0.0 in
11:12 10.1 °F 4.0 °F 1027.0 in NE 12.9 mph 17.7 mph 66 % 0.0 in
11:17 10.2 °F 4.1 °F 1027.0 in ENE 3.2 mph 17.7 mph 66 % 0.0 in
11:22 10.3 °F 4.2 °F 1027.0 in NNE 8.0 mph 17.7 mph 66 % 0.0 in
11:27 10.5 °F 4.6 °F 1027.0 in North 8.0 mph 17.7 mph 67 % 0.0 in
11:32 10.6 °F 4.3 °F 1027.0 in NNE 9.7 mph 16.1 mph 65 % 0.0 in
11:37 10.8 °F 4.5 °F 1027.0 in ENE 12.9 mph 19.3 mph 65 % 0.0 in
11:42 11.1 °F 4.3 °F 1027.0 in NNE 8.0 mph 19.3 mph 63 % 0.0 in
11:47 11.2 °F 4.4 °F 1026.6 in NNE 8.0 mph 16.1 mph 63 % 0.0 in
11:52 11.3 °F 4.7 °F 1026.6 in East 9.7 mph 16.1 mph 64 % 0.0 in
11:57 11.6 °F 5.0 °F 1026.6 in East 4.8 mph 16.1 mph 64 % 0.0 in
12:02 11.9 °F 5.1 °F 1026.6 in ENE 4.8 mph 14.5 mph 63 % 0.0 in
12:07 11.8 °F 4.3 °F 1026.6 in NNW 4.8 mph 16.1 mph 60 % 0.0 in
12:12 12.1 °F 4.8 °F 1026.6 in NNW 12.9 mph 16.1 mph 61 % 0.0 in
12:17 12.2 °F 4.4 °F 1026.6 in ENE 9.7 mph 20.9 mph 59 % 0.0 in
12:22 12.2 °F 4.2 °F 1026.6 in NNE 16.1 mph 20.9 mph 58 % 0.0 in
12:27 12.2 °F 4.4 °F 1026.6 in ENE 8.0 mph 20.9 mph 59 % 0.0 in
12:32 12.5 °F 4.5 °F 1026.6 in NE 9.7 mph 20.9 mph 58 % 0.0 in
12:37 12.7 °F 4.4 °F 1026.6 in NE 8.0 mph 17.7 mph 57 % 0.0 in
12:42 12.6 °F 4.3 °F 1026.6 in East 6.4 mph 24.1 mph 57 % 0.0 in
12:47 12.9 °F 4.6 °F 1026.6 in NE 6.4 mph 27.4 mph 57 % 0.0 in
12:52 13.1 °F 4.3 °F 1026.6 in ENE 8.0 mph 27.4 mph 55 % 0.0 in
12:57 13.2 °F 4.9 °F 1026.6 in ENE 9.7 mph 22.5 mph 57 % 0.0 in
13:02 13.2 °F 4.4 °F 1026.6 in NE 11.3 mph 22.5 mph 55 % 0.0 in
13:07 13.6 °F 5.0 °F 1026.6 in NE 8.0 mph 25.7 mph 56 % 0.0 in
13:12 13.8 °F 5.7 °F 1026.3 in NE 6.4 mph 25.7 mph 58 % 0.0 in
13:17 14.2 °F 5.3 °F 1026.3 in East 14.5 mph 22.5 mph 55 % 0.0 in
13:22 14.2 °F 5.0 °F 1026.3 in ENE 6.4 mph 17.7 mph 54 % 0.0 in
13:27 14.3 °F 5.4 °F 1026.3 in NNE 6.4 mph 17.7 mph 55 % 0.0 in
13:32 14.3 °F 5.9 °F 1026.3 in NE 4.8 mph 17.7 mph 57 % 0.0 in
13:37 14.4 °F 5.2 °F 1026.3 in NE 8.0 mph 20.9 mph 54 % 0.0 in
13:42 14.4 °F 5.5 °F 1026.0 in North 3.2 mph 20.9 mph 55 % 0.0 in
13:47 14.7 °F 6.3 °F 1026.0 in ENE 11.3 mph 19.3 mph 57 % 0.0 in
13:52 14.8 °F 5.8 °F 1026.0 in NNE 14.5 mph 16.1 mph 55 % 0.0 in
13:57 14.8 °F 5.3 °F 1026.0 in NE 6.4 mph 17.7 mph 53 % 0.0 in
14:02 14.9 °F 5.9 °F 1026.0 in North 4.8 mph 24.1 mph 55 % 0.0 in
14:07 15.3 °F 5.8 °F 1026.0 in ENE 6.4 mph 24.1 mph 53 % 0.0 in
14:12 15.5 °F 6.0 °F 1026.0 in NE 9.7 mph 24.1 mph 53 % 0.0 in
14:17 15.2 °F 5.4 °F 1026.0 in NE 8.0 mph 20.9 mph 52 % 0.0 in
14:22 15.4 °F 6.1 °F 1026.0 in ESE 4.8 mph 20.9 mph 54 % 0.0 in
14:27 15.4 °F 5.9 °F 1026.0 in ENE 14.5 mph 20.9 mph 53 % 0.0 in
14:32 15.6 °F 6.1 °F 1026.0 in ENE 9.7 mph 20.9 mph 53 % 0.0 in
14:37 15.8 °F 6.5 °F 1026.0 in NE 9.7 mph 20.9 mph 54 % 0.0 in
14:42 16.1 °F 6.8 °F 1025.6 in NE 11.3 mph 17.7 mph 54 % 0.0 in
14:47 15.9 °F 6.3 °F 1025.6 in East 8.0 mph 16.1 mph 53 % 0.0 in
14:52 15.8 °F 6.0 °F 1025.6 in NNE 8.0 mph 17.7 mph 52 % 0.0 in
14:57 15.9 °F 6.1 °F 1025.6 in NNE 11.3 mph 17.7 mph 52 % 0.0 in
15:02 16.1 °F 6.5 °F 1025.6 in NNW 8.0 mph 17.7 mph 53 % 0.0 in
15:07 16.2 °F 7.1 °F 1025.3 in NE 9.7 mph 16.1 mph 55 % 0.0 in
15:12 16.3 °F 7.2 °F 1025.3 in ENE 6.4 mph 17.7 mph 55 % 0.0 in
15:17 16.4 °F 6.8 °F 1025.3 in East 3.2 mph 17.7 mph 53 % 0.0 in
15:22 16.5 °F 6.6 °F 1025.3 in NE 11.3 mph 16.1 mph 52 % 0.0 in
15:27 16.4 °F 5.9 °F 1025.3 in East 6.4 mph 17.7 mph 50 % 0.0 in
15:32 16.4 °F 6.5 °F 1025.3 in NNW 6.4 mph 17.7 mph 52 % 0.0 in
15:37 16.7 °F 6.8 °F 1025.3 in NE 11.3 mph 17.7 mph 52 % 0.0 in
15:42 16.8 °F 7.4 °F 1025.3 in NNE 3.2 mph 14.5 mph 54 % 0.0 in
15:47 16.9 °F 7.0 °F 1024.9 in East 3.2 mph 12.9 mph 52 % 0.0 in
15:52 16.8 °F 6.3 °F 1024.9 in NE 8.0 mph 12.9 mph 50 % 0.0 in
15:57 16.9 °F 7.3 °F 1024.9 in East 4.8 mph 16.1 mph 53 % 0.0 in
16:02 17.1 °F 7.4 °F 1024.9 in ENE 4.8 mph 16.1 mph 53 % 0.0 in
16:07 17.2 °F 7.0 °F 1024.9 in NNE 8.0 mph 14.5 mph 51 % 0.0 in
16:12 17.2 °F 6.7 °F 1024.9 in ENE 4.8 mph 14.5 mph 50 % 0.0 in
16:17 17.4 °F 7.2 °F 1024.6 in NE 14.5 mph 16.1 mph 51 % 0.0 in
16:22 17.2 °F 7.0 °F 1024.6 in ENE 6.4 mph 19.3 mph 51 % 0.0 in
16:27 17.3 °F 7.1 °F 1024.6 in NNE 14.5 mph 19.3 mph 51 % 0.0 in
16:32 17.2 °F 7.0 °F 1024.6 in North 16.1 mph 19.3 mph 51 % 0.0 in
16:37 17.4 °F 6.9 °F 1024.6 in ENE 8.0 mph 19.3 mph 50 % 0.0 in
16:42 17.5 °F 6.7 °F 1024.6 in ENE 16.1 mph 22.5 mph 49 % 0.0 in
16:47 17.7 °F 7.1 °F 1024.3 in NE 8.0 mph 22.5 mph 50 % 0.0 in
16:52 17.6 °F 6.5 °F 1024.3 in NE 19.3 mph 19.3 mph 48 % 0.0 in
16:57 17.7 °F 6.2 °F 1024.3 in NNE 11.3 mph 24.1 mph 47 % 0.0 in
17:02 17.6 °F 6.5 °F 1024.3 in NE 8.0 mph 24.1 mph 48 % 0.0 in
17:07 17.7 °F 6.5 °F 1024.3 in ENE 8.0 mph 20.9 mph 48 % 0.0 in
17:12 17.7 °F 7.1 °F 1024.3 in NNE 14.5 mph 20.9 mph 50 % 0.0 in
17:17 17.7 °F 6.8 °F 1024.3 in NE 12.9 mph 19.3 mph 49 % 0.0 in
17:22 17.9 °F 7.3 °F 1024.3 in ENE 3.2 mph 19.3 mph 50 % 0.0 in
17:27 17.9 °F 7.0 °F 1024.3 in ENE 14.5 mph 19.3 mph 49 % 0.0 in
17:32 18.0 °F 7.7 °F 1023.9 in ENE 6.4 mph 20.9 mph 51 % 0.0 in
17:37 17.9 °F 7.3 °F 1023.9 in NE 14.5 mph 20.9 mph 50 % 0.0 in
17:42 17.9 °F 7.3 °F 1023.9 in East 12.9 mph 20.9 mph 50 % 0.0 in
17:47 17.9 °F 7.3 °F 1023.9 in NE 14.5 mph 19.3 mph 50 % 0.0 in
17:52 17.8 °F 7.2 °F 1023.9 in ENE 14.5 mph 19.3 mph 50 % 0.0 in
17:57 17.8 °F 7.5 °F 1023.9 in NE 12.9 mph 20.9 mph 51 % 0.0 in
18:02 17.9 °F 7.6 °F 1023.9 in NE 4.8 mph 20.9 mph 51 % 0.0 in
18:12 17.9 °F 7.6 °F 1023.9 in NNE 6.4 mph 17.7 mph 51 % 0.0 in
18:17 17.9 °F 7.6 °F 1023.9 in NE 12.9 mph 17.7 mph 51 % 0.0 in
18:22 17.9 °F 7.9 °F 1023.9 in ENE 14.5 mph 16.1 mph 52 % 0.0 in
18:27 17.9 °F 7.9 °F 1023.9 in ENE 11.3 mph 16.1 mph 52 % 0.0 in
18:32 17.8 °F 8.1 °F 1023.9 in NE 8.0 mph 16.1 mph 53 % 0.0 in
18:37 17.8 °F 7.5 °F 1023.9 in ENE 4.8 mph 16.1 mph 51 % 0.0 in
18:42 17.8 °F 8.1 °F 1023.9 in ENE 9.7 mph 16.1 mph 53 % 0.0 in
18:47 17.7 °F 8.0 °F 1023.9 in NE 8.0 mph 14.5 mph 53 % 0.0 in
18:52 17.5 °F 7.8 °F 1023.9 in NE 12.9 mph 17.7 mph 53 % 0.0 in
18:57 17.4 °F 7.7 °F 1023.9 in ENE 6.4 mph 19.3 mph 53 % 0.0 in
19:02 17.4 °F 8.0 °F 1023.9 in ENE 9.7 mph 19.3 mph 54 % 0.0 in
19:07 17.4 °F 8.0 °F 1023.9 in NE 4.8 mph 17.7 mph 54 % 0.0 in
19:12 17.2 °F 7.5 °F 1024.3 in East 11.3 mph 17.7 mph 53 % 0.0 in
19:22 17.0 °F 7.6 °F 1024.3 in ENE 8.0 mph 14.5 mph 54 % 0.0 in
19:27 16.9 °F 7.5 °F 1024.3 in ENE 8.0 mph 14.5 mph 54 % 0.0 in
19:32 16.8 °F 7.7 °F 1024.3 in ENE 6.4 mph 14.5 mph 55 % 0.0 in
19:37 16.7 °F 7.6 °F 1024.3 in ENE 8.0 mph 14.5 mph 55 % 0.0 in
19:42 16.6 °F 7.5 °F 1024.3 in NE 3.2 mph 12.9 mph 55 % 0.0 in
19:47 16.4 °F 7.6 °F 1024.3 in ENE 8.0 mph 12.9 mph 56 % 0.0 in
19:52 16.2 °F 7.4 °F 1024.3 in NE 6.4 mph 12.9 mph 56 % 0.0 in
19:57 16.0 °F 7.2 °F 1024.3 in ENE 4.8 mph 12.9 mph 56 % 0.0 in
20:02 15.8 °F 7.3 °F 1024.3 in NE 4.8 mph 11.3 mph 57 % 0.0 in
20:07 15.6 °F 7.4 °F 1024.3 in NNE 6.4 mph 11.3 mph 58 % 0.0 in
20:12 15.3 °F 7.1 °F 1024.6 in NE 4.8 mph 11.3 mph 58 % 0.0 in
20:17 15.1 °F 7.1 °F 1024.6 in NE 6.4 mph 11.3 mph 59 % 0.0 in
20:22 14.9 °F 7.2 °F 1024.6 in NE 6.4 mph 11.3 mph 60 % 0.0 in
20:27 14.8 °F 7.1 °F 1024.6 in NNE 8.0 mph 9.7 mph 60 % 0.0 in
20:37 14.7 °F 7.0 °F 1024.6 in NE 9.7 mph 12.9 mph 60 % 0.0 in
20:42 14.6 °F 6.9 °F 1024.9 in NE 8.0 mph 12.9 mph 60 % 0.0 in
20:47 14.4 °F 7.0 °F 1024.6 in NE 6.4 mph 12.9 mph 61 % 0.0 in
20:52 14.3 °F 7.1 °F 1024.6 in NE 6.4 mph 11.3 mph 62 % 0.0 in
20:57 14.2 °F 7.3 °F 1024.9 in NNE 9.7 mph 11.3 mph 63 % 0.0 in
21:02 14.1 °F 7.4 °F 1024.9 in NNE 11.3 mph 14.5 mph 64 % 0.0 in
21:07 13.7 °F 7.5 °F 1024.9 in NE 3.2 mph 14.5 mph 66 % 0.0 in
21:12 13.3 °F 7.3 °F 1024.9 in NNW 4.8 mph 14.5 mph 67 % 0.0 in
21:17 13.1 °F 7.3 °F 1024.9 in NNW 3.2 mph 11.3 mph 68 % 0.0 in
21:22 12.9 °F 7.3 °F 1024.9 in North 3.2 mph 9.7 mph 69 % 0.0 in
21:27 12.8 °F 7.3 °F 1024.9 in NNW 4.8 mph 9.7 mph 69 % 0.0 in
21:32 12.7 °F 7.2 °F 1024.9 in NNW 3.2 mph 8.0 mph 69 % 0.0 in
21:37 12.4 °F 7.1 °F 1024.9 in North 6.4 mph 8.0 mph 70 % 0.0 in
21:42 12.3 °F 7.0 °F 1024.9 in NNE 4.8 mph 8.0 mph 70 % 0.0 in
21:47 12.2 °F 7.1 °F 1024.9 in North 6.4 mph 8.0 mph 71 % 0.0 in
21:52 11.9 °F 6.8 °F 1024.9 in NNW 3.2 mph 8.0 mph 71 % 0.0 in
21:57 11.8 °F 6.9 °F 1024.9 in NNE 3.2 mph 8.0 mph 72 % 0.0 in
22:02 11.7 °F 7.0 °F 1024.9 in North 4.8 mph 8.0 mph 73 % 0.0 in
22:07 11.8 °F 7.1 °F 1024.9 in NNW 4.8 mph 6.4 mph 73 % 0.0 in
22:12 11.8 °F 7.1 °F 1024.9 in NW 4.8 mph 6.4 mph 73 % 0.0 in
22:17 11.8 °F 6.9 °F 1024.9 in North 3.2 mph 8.0 mph 72 % 0.0 in
22:22 11.8 °F 6.9 °F 1024.9 in Calm   8.0 mph 72 % 0.0 in
22:27 11.6 °F 6.7 °F 1024.9 in NE 1.6 mph 9.7 mph 72 % 0.0 in
22:32 11.5 °F 6.8 °F 1025.3 in North 1.6 mph 9.7 mph 73 % 0.0 in
22:37 11.4 °F 6.7 °F 1025.3 in Calm   9.7 mph 73 % 0.0 in
22:42 11.6 °F 6.9 °F 1025.3 in NNE 8.0 mph 9.7 mph 73 % 0.0 in
22:47 11.6 °F 6.7 °F 1025.3 in NNE 4.8 mph 9.7 mph 72 % 0.0 in
22:52 11.6 °F 6.7 °F 1025.3 in NNE 6.4 mph 9.7 mph 72 % 0.0 in
22:57 11.5 °F 6.8 °F 1025.3 in NNE 3.2 mph 9.7 mph 73 % 0.0 in
23:02 11.4 °F 6.7 °F 1025.3 in NNE 4.8 mph 9.7 mph 73 % 0.0 in
23:07 11.4 °F 6.7 °F 1025.3 in NNE 3.2 mph 12.9 mph 73 % 0.0 in
23:12 11.3 °F 6.6 °F 1025.3 in North 3.2 mph 12.9 mph 73 % 0.0 in
23:17 11.2 °F 6.7 °F 1025.3 in NNE 3.2 mph 12.9 mph 74 % 0.0 in
23:22 11.1 °F 6.6 °F 1025.3 in NE 3.2 mph 6.4 mph 74 % 0.0 in
23:27 11.1 °F 6.6 °F 1025.3 in NNE 6.4 mph 8.0 mph 74 % 0.0 in
23:32 11.1 °F 6.6 °F 1025.3 in NE 4.8 mph 8.0 mph 74 % 0.0 in
23:37 11.0 °F 6.5 °F 1025.3 in NE 6.4 mph 8.0 mph 74 % 0.0 in
23:42 11.2 °F 6.7 °F 1025.3 in NNE 6.4 mph 11.3 mph 74 % 0.0 in
23:47 11.1 °F 6.6 °F 1025.3 in North 3.2 mph 12.9 mph 74 % 0.0 in
23:52 10.9 °F 6.4 °F 1024.9 in Calm   12.9 mph 74 % 0.0 in
23:57 10.8 °F 6.5 °F 1024.9 in NNE 1.6 mph 9.7 mph 75 % 0.0 in
Meteo18
Compliments of Weather Underground - 4 mb

Script developed by  Jim McMurry - jmcmurry@mwt.net Adapted for the template by  Wim van der Kuil - Leuven-Template.eu

You find our weather info also at:

European Weather Network

Weather Underground

Equipment we use:

Weather-station
Davis Vue

Weather-program
Meteobridge

Weather-server
Raspberry PI 2 B+

Provider
1 and 1

Davis Vue

Meteobridge

Raspberry PI 2 B+

1 and 1